Time,TemperatureF,DewpointF,PressureIn,WindDirection,WindDirectionDegrees,WindSpeedMPH,WindSpeedGustMPH,Humidity,HourlyPrecipIn,Conditions,Clouds,dailyrainin,SoftwareType,DateUTC
2013-06-30 00:12:00,61.0,-99.9,-100.00,NW,307,5.0,8.0,-999,-99.99,,,-99.99,,2013-06-30 04:12:00,
2013-06-30 00:22:00,61.0,-99.9,-100.00,NW,307,5.0,8.0,-999,-99.99,,,-99.99,,2013-06-30 04:22:00,
2013-06-30 00:33:00,61.0,-99.9,-100.00,NW,307,5.0,8.0,-999,-99.99,,,-99.99,,2013-06-30 04:33:00,
2013-06-30 00:40:00,60.0,-99.9,-100.00,WNW,284,4.0,8.0,-999,-99.99,,,-99.99,,2013-06-30 04:40:00,
2013-06-30 01:12:00,60.0,-99.9,-100.00,WNW,284,4.0,8.0,-999,-99.99,,,-99.99,,2013-06-30 05:12:00,
2013-06-30 01:22:00,60.0,-99.9,-100.00,WNW,284,4.0,8.0,-999,-99.99,,,-99.99,,2013-06-30 05:22:00,
2013-06-30 01:34:00,60.0,-99.9,-100.00,WNW,284,4.0,8.0,-999,-99.99,,,-99.99,,2013-06-30 05:34:00,
2013-06-30 01:40:00,57.0,-99.9,-100.00,West,260,3.0,9.0,-999,-99.99,,,-99.99,,2013-06-30 05:40:00,
2013-06-30 02:12:00,57.0,-99.9,-100.00,West,260,3.0,9.0,-999,-99.99,,,-99.99,,2013-06-30 06:12:00,
2013-06-30 02:23:00,57.0,-99.9,-100.00,West,260,3.0,9.0,-999,-99.99,,,-99.99,,2013-06-30 06:23:00,
2013-06-30 02:34:00,57.0,-99.9,-100.00,West,260,3.0,9.0,-999,-99.99,,,-99.99,,2013-06-30 06:34:00,
2013-06-30 02:40:00,56.0,-99.9,-100.00,West,262,4.0,8.0,-999,-99.99,,,-99.99,,2013-06-30 06:40:00,
2013-06-30 03:12:00,56.0,-99.9,-100.00,West,262,4.0,8.0,-999,-99.99,,,-99.99,,2013-06-30 07:12:00,
2013-06-30 03:22:00,56.0,-99.9,-100.00,West,262,4.0,8.0,-999,-99.99,,,-99.99,,2013-06-30 07:22:00,
2013-06-30 03:33:00,56.0,-99.9,-100.00,West,262,4.0,8.0,-999,-99.99,,,-99.99,,2013-06-30 07:33:00,
2013-06-30 03:40:00,56.0,-99.9,-100.00,West,264,3.0,8.0,-999,-99.99,,,-99.99,,2013-06-30 07:40:00,
2013-06-30 04:12:00,56.0,-99.9,-100.00,West,264,3.0,8.0,-999,-99.99,,,-99.99,,2013-06-30 08:12:00,
2013-06-30 04:22:00,56.0,-99.9,-100.00,West,264,3.0,8.0,-999,-99.99,,,-99.99,,2013-06-30 08:22:00,
2013-06-30 04:34:00,56.0,-99.9,-100.00,West,264,3.0,8.0,-999,-99.99,,,-99.99,,2013-06-30 08:34:00,
2013-06-30 04:40:00,49.0,-99.9,-100.00,South,189,2.0,5.0,-999,-99.99,,,-99.99,,2013-06-30 08:40:00,
2013-06-30 05:12:00,49.0,-99.9,-100.00,South,189,2.0,5.0,-999,-99.99,,,-99.99,,2013-06-30 09:12:00,
2013-06-30 05:23:00,49.0,-99.9,-100.00,South,189,2.0,5.0,-999,-99.99,,,-99.99,,2013-06-30 09:23:00,
2013-06-30 05:34:00,49.0,-99.9,-100.00,South,189,2.0,5.0,-999,-99.99,,,-99.99,,2013-06-30 09:34:00,
2013-06-30 05:40:00,49.0,-99.9,-100.00,SSE,168,2.0,6.0,-999,-99.99,,,-99.99,,2013-06-30 09:40:00,
2013-06-30 06:11:00,49.0,-99.9,-100.00,SSE,168,2.0,6.0,-999,-99.99,,,-99.99,,2013-06-30 10:11:00,
2013-06-30 06:22:00,49.0,-99.9,-100.00,SSE,168,2.0,6.0,-999,-99.99,,,-99.99,,2013-06-30 10:22:00,
2013-06-30 06:34:00,49.0,-99.9,-100.00,SSE,168,2.0,6.0,-999,-99.99,,,-99.99,,2013-06-30 10:34:00,
2013-06-30 06:40:00,48.0,-99.9,-100.00,SSE,147,2.0,5.0,-999,-99.99,,,-99.99,,2013-06-30 10:40:00,
2013-06-30 07:11:00,48.0,-99.9,-100.00,SSE,147,2.0,5.0,-999,-99.99,,,-99.99,,2013-06-30 11:11:00,
2013-06-30 07:22:00,48.0,-99.9,-100.00,SSE,147,2.0,5.0,-999,-99.99,,,-99.99,,2013-06-30 11:22:00,
2013-06-30 07:33:00,48.0,-99.9,-100.00,SSE,147,2.0,5.0,-999,-99.99,,,-99.99,,2013-06-30 11:33:00,
2013-06-30 07:40:00,53.0,-99.9,-100.00,South,172,2.0,3.0,-999,-99.99,,,-99.99,,2013-06-30 11:40:00,
2013-06-30 08:12:00,53.0,-99.9,-100.00,South,172,2.0,3.0,-999,-99.99,,,-99.99,,2013-06-30 12:12:00,
2013-06-30 08:24:00,53.0,-99.9,-100.00,South,172,2.0,3.0,-999,-99.99,,,-99.99,,2013-06-30 12:24:00,
2013-06-30 08:33:00,53.0,-99.9,-100.00,South,172,2.0,3.0,-999,-99.99,,,-99.99,,2013-06-30 12:33:00,
2013-06-30 08:40:00,60.0,-99.9,-100.00,ENE,72,1.0,4.0,-999,-99.99,,,-99.99,,2013-06-30 12:40:00,
2013-06-30 09:12:00,60.0,-99.9,-100.00,ENE,72,1.0,4.0,-999,-99.99,,,-99.99,,2013-06-30 13:12:00,
2013-06-30 09:22:00,60.0,-99.9,-100.00,ENE,72,1.0,4.0,-999,-99.99,,,-99.99,,2013-06-30 13:22:00,
2013-06-30 09:34:00,60.0,-99.9,-100.00,ENE,72,1.0,4.0,-999,-99.99,,,-99.99,,2013-06-30 13:34:00,
2013-06-30 09:40:00,65.0,-99.9,-100.00,NNW,346,3.0,7.0,-999,-99.99,,,-99.99,,2013-06-30 13:40:00,
2013-06-30 10:11:00,65.0,-99.9,-100.00,NNW,346,3.0,7.0,-999,-99.99,,,-99.99,,2013-06-30 14:11:00,
2013-06-30 10:22:00,65.0,-99.9,-100.00,NNW,346,3.0,7.0,-999,-99.99,,,-99.99,,2013-06-30 14:22:00,
2013-06-30 10:33:00,65.0,-99.9,-100.00,NNW,346,3.0,7.0,-999,-99.99,,,-99.99,,2013-06-30 14:33:00,
2013-06-30 10:40:00,67.0,-99.9,-100.00,NE,40,2.0,5.0,-999,-99.99,,,-99.99,,2013-06-30 14:40:00,
2013-06-30 11:12:00,67.0,-99.9,-100.00,NE,40,2.0,5.0,-999,-99.99,,,-99.99,,2013-06-30 15:12:00,
2013-06-30 11:23:00,67.0,-99.9,-100.00,NE,40,2.0,5.0,-999,-99.99,,,-99.99,,2013-06-30 15:23:00,
2013-06-30 11:35:00,67.0,-99.9,-100.00,NE,40,2.0,5.0,-999,-99.99,,,-99.99,,2013-06-30 15:35:00,
2013-06-30 11:40:00,65.0,-99.9,-100.00,NNE,24,9.0,11.0,-999,-99.99,,,-99.99,,2013-06-30 15:40:00,
2013-06-30 12:34:00,65.0,-99.9,-100.00,NNE,24,9.0,11.0,-999,-99.99,,,-99.99,,2013-06-30 16:34:00,
2013-06-30 12:40:00,64.0,-99.9,-100.00,NE,40,6.0,9.0,-999,-99.99,,,-99.99,,2013-06-30 16:40:00,
2013-06-30 13:12:00,64.0,-99.9,-100.00,NE,40,6.0,9.0,-999,-99.99,,,-99.99,,2013-06-30 17:12:00,
2013-06-30 13:24:00,64.0,-99.9,-100.00,NE,40,6.0,9.0,-999,-99.99,,,-99.99,,2013-06-30 17:24:00,
2013-06-30 13:34:00,64.0,-99.9,-100.00,NE,40,6.0,9.0,-999,-99.99,,,-99.99,,2013-06-30 17:34:00,
2013-06-30 13:40:00,67.0,-99.9,-100.00,North,2,3.0,3.0,-999,-99.99,,,-99.99,,2013-06-30 17:40:00,
2013-06-30 14:12:00,67.0,-99.9,-100.00,North,2,3.0,3.0,-999,-99.99,,,-99.99,,2013-06-30 18:12:00,
2013-06-30 14:22:00,67.0,-99.9,-100.00,North,2,3.0,3.0,-999,-99.99,,,-99.99,,2013-06-30 18:22:00,
2013-06-30 14:34:00,67.0,-99.9,-100.00,North,2,3.0,3.0,-999,-99.99,,,-99.99,,2013-06-30 18:34:00,
2013-06-30 14:40:00,70.0,-99.9,-100.00,North,10,3.0,3.0,-999,-99.99,,,-99.99,,2013-06-30 18:40:00,
2013-06-30 15:12:00,70.0,-99.9,-100.00,North,10,3.0,3.0,-999,-99.99,,,-99.99,,2013-06-30 19:12:00,
2013-06-30 15:22:00,70.0,-99.9,-100.00,North,10,3.0,3.0,-999,-99.99,,,-99.99,,2013-06-30 19:22:00,
2013-06-30 15:33:00,70.0,-99.9,-100.00,North,10,3.0,3.0,-999,-99.99,,,-99.99,,2013-06-30 19:33:00,
2013-06-30 15:40:00,68.0,-99.9,-100.00,North,350,5.0,5.0,-999,-99.99,,,-99.99,,2013-06-30 19:40:00,
2013-06-30 16:12:00,68.0,-99.9,-100.00,North,350,5.0,5.0,-999,-99.99,,,-99.99,,2013-06-30 20:12:00,
2013-06-30 16:22:00,68.0,-99.9,-100.00,North,350,5.0,5.0,-999,-99.99,,,-99.99,,2013-06-30 20:22:00,
2013-06-30 16:34:00,68.0,-99.9,-100.00,North,350,5.0,5.0,-999,-99.99,,,-99.99,,2013-06-30 20:34:00,
2013-06-30 16:40:00,67.0,-99.9,-100.00,NNW,347,5.0,6.0,-999,-99.99,,,-99.99,,2013-06-30 20:40:00,
2013-06-30 17:11:00,67.0,-99.9,-100.00,NNW,347,5.0,6.0,-999,-99.99,,,-99.99,,2013-06-30 21:11:00,
2013-06-30 17:22:00,67.0,-99.9,-100.00,NNW,347,5.0,6.0,-999,-99.99,,,-99.99,,2013-06-30 21:22:00,
2013-06-30 17:34:00,67.0,-99.9,-100.00,NNW,347,5.0,6.0,-999,-99.99,,,-99.99,,2013-06-30 21:34:00,
2013-06-30 17:40:00,69.0,-99.9,-100.00,NNW,344,3.0,4.0,-999,-99.99,,,-99.99,,2013-06-30 21:40:00,
2013-06-30 18:11:00,69.0,-99.9,-100.00,NNW,344,3.0,4.0,-999,-99.99,,,-99.99,,2013-06-30 22:11:00,
2013-06-30 18:22:00,69.0,-99.9,-100.00,NNW,344,3.0,4.0,-999,-99.99,,,-99.99,,2013-06-30 22:22:00,
2013-06-30 18:34:00,69.0,-99.9,-100.00,NNW,344,3.0,4.0,-999,-99.99,,,-99.99,,2013-06-30 22:34:00,
2013-06-30 18:40:00,66.0,-99.9,-100.00,NNW,341,6.0,7.0,-999,-99.99,,,-99.99,,2013-06-30 22:40:00,
2013-06-30 19:11:00,66.0,-99.9,-100.00,NNW,341,6.0,7.0,-999,-99.99,,,-99.99,,2013-06-30 23:11:00,
2013-06-30 19:22:00,66.0,-99.9,-100.00,NNW,341,6.0,7.0,-999,-99.99,,,-99.99,,2013-06-30 23:22:00,
2013-06-30 19:33:00,66.0,-99.9,-100.00,NNW,341,6.0,7.0,-999,-99.99,,,-99.99,,2013-06-30 23:33:00,
2013-06-30 19:40:00,65.0,-99.9,-100.00,NNW,347,3.0,5.0,-999,-99.99,,,-99.99,,2013-06-30 23:40:00,
2013-06-30 20:11:00,65.0,-99.9,-100.00,NNW,347,3.0,5.0,-999,-99.99,,,-99.99,,2013-07-01 00:11:00,
2013-06-30 20:22:00,65.0,-99.9,-100.00,NNW,347,3.0,5.0,-999,-99.99,,,-99.99,,2013-07-01 00:22:00,
2013-06-30 20:33:00,65.0,-99.9,-100.00,NNW,347,3.0,5.0,-999,-99.99,,,-99.99,,2013-07-01 00:33:00,
2013-06-30 20:40:00,64.0,-99.9,-100.00,North,-999,0.0,0.0,-999,-99.99,,,-99.99,,2013-07-01 00:40:00,
2013-06-30 21:12:00,64.0,-99.9,-100.00,North,-999,0.0,0.0,-999,-99.99,,,-99.99,,2013-07-01 01:12:00,
2013-06-30 21:22:00,64.0,-99.9,-100.00,North,-999,0.0,0.0,-999,-99.99,,,-99.99,,2013-07-01 01:22:00,
2013-06-30 21:34:00,64.0,-99.9,-100.00,North,-999,0.0,0.0,-999,-99.99,,,-99.99,,2013-07-01 01:34:00,
2013-06-30 21:40:00,60.0,-99.9,-100.00,South,190,1.0,1.0,-999,-99.99,,,-99.99,,2013-07-01 01:40:00,
2013-06-30 22:12:00,60.0,-99.9,-100.00,South,190,1.0,1.0,-999,-99.99,,,-99.99,,2013-07-01 02:12:00,
2013-06-30 22:22:00,60.0,-99.9,-100.00,South,190,1.0,1.0,-999,-99.99,,,-99.99,,2013-07-01 02:22:00,
2013-06-30 22:33:00,60.0,-99.9,-100.00,South,190,1.0,1.0,-999,-99.99,,,-99.99,,2013-07-01 02:33:00,
2013-06-30 22:40:00,58.0,-99.9,-100.00,South,182,1.0,3.0,-999,-99.99,,,-99.99,,2013-07-01 02:40:00,
2013-06-30 23:12:00,58.0,-99.9,-100.00,South,182,1.0,3.0,-999,-99.99,,,-99.99,,2013-07-01 03:12:00,
2013-06-30 23:23:00,58.0,-99.9,-100.00,South,182,1.0,3.0,-999,-99.99,,,-99.99,,2013-07-01 03:23:00,
2013-06-30 23:33:00,58.0,-99.9,-100.00,South,182,1.0,3.0,-999,-99.99,,,-99.99,,2013-07-01 03:33:00,
2013-06-30 23:40:00,57.0,-99.9,-100.00,South,171,1.0,2.0,-999,-99.99,,,-99.99,,2013-07-01 03:40:00,